TimeCEST,TemperatureF,Dew PointF,Humidity,Sea Level PressureIn,VisibilityMPH,Wind Direction,Wind SpeedMPH,Gust SpeedMPH,PrecipitationIn,Events,Conditions,WindDirDegrees,DateUTC
12:50 AM,71.6,68.0,88,29.98,5.0,SW,16.1,-,N/A,Rain,Light Rain Showers,230,2013-09-29 22:50:00
1:50 AM,71,69,89,29.98,9,SW,15.0,,,Rain,Light Rain Showers,220,2013-09-29 23:50:00
1:50 AM,71.6,68.0,88,29.98,6.2,SW,15.0,-,N/A,,Overcast,220,2013-09-29 23:50:00
2:50 AM,71.6,68.0,88,29.98,6.2,SW,11.5,-,N/A,,Mostly Cloudy,230,2013-09-30 00:50:00
3:50 AM,71.6,68.0,88,29.95,6.2,SW,9.2,-,N/A,,Scattered Clouds,230,2013-09-30 01:50:00
4:50 AM,71.6,68.0,88,29.95,6.2,SW,8.1,-,N/A,,Scattered Clouds,230,2013-09-30 02:50:00
5:50 AM,71.6,68.0,88,29.95,6.2,SW,15.0,-,N/A,,Scattered Clouds,230,2013-09-30 03:50:00
6:50 AM,71.6,68.0,88,29.92,6.2,SW,12.7,24.2,N/A,,Mostly Cloudy,230,2013-09-30 04:50:00
7:50 AM,71.6,68.0,88,29.95,6.2,SW,11.5,-,N/A,,Mostly Cloudy,220,2013-09-30 05:50:00
8:50 AM,71.6,68.0,88,29.95,6.2,SW,12.7,-,N/A,,Mostly Cloudy,230,2013-09-30 06:50:00
9:50 AM,71.6,66.2,83,29.95,6.2,SSW,9.2,-,N/A,,Scattered Clouds,210,2013-09-30 07:50:00
10:50 AM,73.4,66.2,78,29.95,6.2,SSW,8.1,-,N/A,,Mostly Cloudy,200,2013-09-30 08:50:00
11:50 AM,73.4,66.2,78,29.98,6.2,SW,9.2,-,N/A,,Mostly Cloudy,220,2013-09-30 09:50:00
12:50 PM,75.2,66.2,73,29.95,6.2,WSW,10.4,-,N/A,,Mostly Cloudy,240,2013-09-30 10:50:00
1:50 PM,76,66,63,29.96,9,WSW,13.8,,,,Partly Cloudy,250,2013-09-30 11:50:00
1:50 PM,75.2,66.2,73,29.95,6.2,WSW,17.3,-,N/A,,Mostly Cloudy,250,2013-09-30 11:50:00
2:50 PM,77.0,64.4,65,29.92,6.2,WSW,16.1,-,N/A,,Scattered Clouds,240,2013-09-30 12:50:00
3:50 PM,77.0,66.2,69,29.92,6.2,WSW,16.1,-,N/A,,Mostly Cloudy,240,2013-09-30 13:50:00
4:50 PM,75.2,66.2,73,29.92,6.2,SW,13.8,-,N/A,,Scattered Clouds,230,2013-09-30 14:50:00
5:50 PM,75.2,66.2,73,29.92,6.2,SW,13.8,-,N/A,,Scattered Clouds,230,2013-09-30 15:50:00
6:50 PM,75.2,66.2,73,29.92,6.2,SW,12.7,-,N/A,,Mostly Cloudy,230,2013-09-30 16:50:00
7:50 PM,75,66,67,29.94,7,SW,12.7,,,,Mostly Cloudy,230,2013-09-30 17:50:00
7:50 PM,75.2,66.2,73,29.92,6.2,SW,12.7,-,N/A,,Mostly Cloudy,230,2013-09-30 17:50:00
8:50 PM,75.2,66.2,73,29.95,6.2,SW,10.4,-,N/A,,Mostly Cloudy,230,2013-09-30 18:50:00
9:50 PM,75.2,66.2,73,29.95,6.2,WSW,11.5,-,N/A,,Mostly Cloudy,240,2013-09-30 19:50:00
10:50 PM,73.4,68.0,83,29.95,6.2,SW,5.8,-,N/A,,Mostly Cloudy,230,2013-09-30 20:50:00
11:50 PM,73.4,68.0,83,29.95,6.2,SW,11.5,-,N/A,,Scattered Clouds,230,2013-09-30 21:50:00